createdAt,value
2023-03-03T00:01:19.432Z,2.37
2023-03-03T00:03:47.782Z,2.33
2023-03-03T00:06:15.787Z,2.22
2023-03-03T00:08:43.852Z,2.20
2023-03-03T00:11:12.372Z,2.20
2023-03-03T00:13:49.311Z,1.85
2023-03-03T00:16:23.584Z,1.85
2023-03-03T00:18:51.844Z,2.22
2023-03-03T00:21:29.582Z,2.42
2023-03-03T00:24:16.533Z,2.82
2023-03-03T00:26:51.748Z,2.83
2023-03-03T00:29:37.286Z,2.73
2023-03-03T00:32:15.506Z,1.99
2023-03-03T00:34:44.125Z,2.22
2023-03-03T00:37:34.893Z,2.21
2023-03-03T00:40:15.922Z,1.94
2023-03-03T00:42:49.798Z,2.19
2023-03-03T00:45:29.779Z,2.27
2023-03-03T00:47:58.968Z,2.15
2023-03-03T00:50:30.117Z,1.98
2023-03-03T00:53:19.362Z,2.06
2023-03-03T00:55:49.862Z,1.73
2023-03-03T00:58:22.086Z,1.94
2023-03-03T01:00:54.742Z,2.08
2023-03-03T01:03:26.665Z,2.02
2023-03-03T01:05:55.628Z,2.01
2023-03-03T01:08:24.395Z,2.18
2023-03-03T01:10:57.941Z,2.09
2023-03-03T01:13:29.102Z,2.01
2023-03-03T01:15:57.186Z,1.91
2023-03-03T01:18:25.440Z,1.99
2023-03-03T01:20:53.765Z,2.18
2023-03-03T01:23:21.951Z,2.16
2023-03-03T01:25:49.934Z,2.23
2023-03-03T01:28:18.277Z,2.22
2023-03-03T01:30:46.576Z,2.29
2023-03-03T01:33:14.561Z,2.38
2023-03-03T01:35:46.877Z,2.37
2023-03-03T01:38:15.636Z,2.55
2023-03-03T01:40:44.012Z,2.42
2023-03-03T01:43:16.233Z,2.25
2023-03-03T01:46:07.763Z,2.70
2023-03-03T01:48:42.487Z,2.93
2023-03-03T01:51:24.370Z,2.87
2023-03-03T01:53:55.706Z,3.18
2023-03-03T01:56:24.892Z,3.17
2023-03-03T01:58:53.016Z,3.22
2023-03-03T02:01:23.860Z,3.37
2023-03-03T02:03:53.602Z,3.28
2023-03-03T02:06:29.271Z,3.63
2023-03-03T02:09:19.771Z,3.70
2023-03-03T02:11:49.704Z,3.59
2023-03-03T02:14:17.766Z,3.51
2023-03-03T02:16:45.967Z,3.61
2023-03-03T02:19:39.596Z,3.69
2023-03-03T02:22:07.911Z,3.71
2023-03-03T02:24:45.550Z,3.71
2023-03-03T02:27:14.929Z,3.95
2023-03-03T02:29:43.469Z,4.03
2023-03-03T02:32:11.712Z,4.04
2023-03-03T02:34:50.508Z,3.83
2023-03-03T02:37:19.810Z,4.29
2023-03-03T02:39:47.872Z,4.41
2023-03-03T02:42:20.744Z,3.90
2023-03-03T02:44:49.739Z,3.90
2023-03-03T02:47:17.677Z,4.32
2023-03-03T02:49:45.795Z,4.23
2023-03-03T02:52:15.145Z,4.73
2023-03-03T02:54:44.482Z,4.96
2023-03-03T02:57:12.732Z,4.92
2023-03-03T02:59:41.048Z,4.95
2023-03-03T03:02:09.398Z,5.32
2023-03-03T03:04:37.396Z,5.53
2023-03-03T03:07:05.838Z,5.47
2023-03-03T03:09:34.252Z,5.31
2023-03-03T03:12:02.784Z,5.51
2023-03-03T03:14:31.879Z,5.53
2023-03-03T03:17:00.072Z,5.62
2023-03-03T03:19:28.620Z,5.37
2023-03-03T03:21:58.820Z,5.45
2023-03-03T03:24:27.410Z,5.55
2023-03-03T03:26:55.758Z,5.31
2023-03-03T03:29:24.345Z,5.75
2023-03-03T03:31:52.326Z,5.79
2023-03-03T03:34:20.403Z,5.86
2023-03-03T03:36:49.952Z,5.26
2023-03-03T03:39:18.062Z,5.17
2023-03-03T03:41:46.645Z,5.84
2023-03-03T03:44:15.034Z,6.14
2023-03-03T03:46:43.650Z,6.18
2023-03-03T03:49:11.852Z,5.57
2023-03-03T03:51:42.232Z,5.69
2023-03-03T03:54:11.160Z,5.67
2023-03-03T03:56:39.661Z,5.99
2023-03-03T03:59:09.199Z,6.17
2023-03-03T04:01:37.588Z,6.58
2023-03-03T04:04:06.206Z,6.37
2023-03-03T04:06:35.138Z,6.64
2023-03-03T04:09:04.220Z,6.00
2023-03-03T04:11:32.828Z,6.67
2023-03-03T04:14:00.818Z,6.69
2023-03-03T04:16:28.914Z,6.38
2023-03-03T04:18:57.363Z,6.32
2023-03-03T04:21:25.515Z,6.61
2023-03-03T04:23:54.375Z,6.60
2023-03-03T04:26:22.864Z,6.50
2023-03-03T04:28:50.924Z,6.04
2023-03-03T04:31:20.798Z,6.34
2023-03-03T04:33:49.375Z,6.13
2023-03-03T04:36:18.076Z,6.06
2023-03-03T04:38:46.284Z,6.03
2023-03-03T04:41:14.751Z,5.88
2023-03-03T04:43:43.085Z,5.62
2023-03-03T04:46:12.539Z,6.16
2023-03-03T04:48:40.965Z,6.76
2023-03-03T04:51:08.934Z,6.61
2023-03-03T04:53:38.555Z,6.40
2023-03-03T04:56:07.673Z,6.15
2023-03-03T04:58:35.755Z,6.33
2023-03-03T05:01:04.082Z,6.53
2023-03-03T05:03:33.169Z,6.43
2023-03-03T05:06:01.234Z,6.78
2023-03-03T05:08:29.172Z,6.66
2023-03-03T05:10:59.776Z,6.96
2023-03-03T05:13:27.774Z,7.23
2023-03-03T05:15:56.639Z,7.16
2023-03-03T05:18:25.763Z,7.01
2023-03-03T05:20:54.452Z,7.15
2023-03-03T05:23:22.551Z,6.53
2023-03-03T05:25:51.454Z,7.00
2023-03-03T05:28:19.440Z,6.90
2023-03-03T05:30:47.614Z,6.39
2023-03-03T05:33:17.220Z,6.17
2023-03-03T05:35:45.765Z,6.50
2023-03-03T05:38:13.753Z,6.48
2023-03-03T05:40:42.084Z,6.57
2023-03-03T05:43:10.182Z,6.37
2023-03-03T05:45:38.070Z,6.61
2023-03-03T05:48:06.400Z,6.62
2023-03-03T05:50:34.363Z,6.08
2023-03-03T05:53:02.352Z,5.46
2023-03-03T05:55:31.054Z,5.37
2023-03-03T05:57:59.032Z,5.88
2023-03-03T06:00:27.093Z,5.48
2023-03-03T06:02:55.571Z,5.55
2023-03-03T06:05:23.557Z,6.00
2023-03-03T06:07:51.671Z,6.38
2023-03-03T06:10:20.228Z,6.17
2023-03-03T06:12:48.973Z,6.01
2023-03-03T06:15:17.028Z,5.53
2023-03-03T06:17:45.736Z,5.81
2023-03-03T06:20:13.761Z,6.18
2023-03-03T06:22:41.887Z,6.29
2023-03-03T06:25:10.259Z,6.44
2023-03-03T06:27:38.216Z,6.04
2023-03-03T06:30:07.025Z,5.96
2023-03-03T06:32:35.399Z,6.47
2023-03-03T06:35:03.534Z,6.37
2023-03-03T06:37:31.614Z,6.43
2023-03-03T06:40:00.116Z,6.26
2023-03-03T06:42:28.201Z,6.66
2023-03-03T06:44:56.211Z,6.81
2023-03-03T06:47:24.590Z,6.88
2023-03-03T06:49:52.560Z,6.99
2023-03-03T06:52:25.672Z,7.57
2023-03-03T06:54:59.380Z,7.07
2023-03-03T06:57:29.952Z,6.82
2023-03-03T07:00:17.153Z,7.06
2023-03-03T07:02:45.158Z,7.11
2023-03-03T07:05:16.632Z,7.00
2023-03-03T07:07:45.263Z,7.03
2023-03-03T07:10:21.828Z,7.10
2023-03-03T07:12:50.383Z,6.95
2023-03-03T07:15:35.166Z,7.65
2023-03-03T07:18:05.351Z,7.39
2023-03-03T07:20:36.989Z,7.17
2023-03-03T07:23:27.492Z,7.74
2023-03-03T07:25:55.878Z,7.70
2023-03-03T07:28:29.411Z,7.36
2023-03-03T07:30:58.322Z,7.54
2023-03-03T07:33:34.748Z,7.66
2023-03-03T07:36:04.281Z,7.60
2023-03-03T07:38:38.016Z,7.20
2023-03-03T07:41:13.158Z,7.78
2023-03-03T07:44:17.553Z,7.85
2023-03-03T07:46:48.464Z,7.60
2023-03-03T07:49:38.287Z,8.25
2023-03-03T07:52:26.950Z,7.77
2023-03-03T07:54:57.867Z,7.61
2023-03-03T07:57:28.911Z,8.19
2023-03-03T08:00:16.789Z,8.37
2023-03-03T08:02:48.242Z,8.56
2023-03-03T08:05:28.311Z,8.20
2023-03-03T08:08:09.382Z,8.60
2023-03-03T08:10:43.819Z,8.35
2023-03-03T08:13:22.972Z,9.18
2023-03-03T08:16:05.359Z,8.17
2023-03-03T08:18:36.850Z,8.62
2023-03-03T08:21:16.486Z,8.62
2023-03-03T08:23:45.049Z,9.13
2023-03-03T08:26:14.283Z,8.74
2023-03-03T08:28:42.292Z,8.35
2023-03-03T08:31:20.196Z,8.50
2023-03-03T08:33:53.482Z,8.76
2023-03-03T08:36:22.079Z,8.37
2023-03-03T08:38:50.124Z,8.30
2023-03-03T08:41:18.140Z,8.22
2023-03-03T08:43:46.549Z,8.30
2023-03-03T08:46:14.719Z,8.20
2023-03-03T08:48:42.696Z,7.96
2023-03-03T08:51:11.046Z,8.21
2023-03-03T08:53:38.996Z,8.83
2023-03-03T08:56:07.296Z,9.02
2023-03-03T08:58:37.305Z,8.70
2023-03-03T09:01:05.765Z,8.44
2023-03-03T09:03:33.811Z,8.14
2023-03-03T09:06:02.606Z,9.02
2023-03-03T09:08:30.814Z,8.26
2023-03-03T09:10:59.446Z,9.08
2023-03-03T09:13:29.859Z,8.96
2023-03-03T09:16:00.162Z,9.00
2023-03-03T09:18:36.033Z,9.03
2023-03-03T09:21:24.277Z,9.07
2023-03-03T09:24:00.402Z,9.81
2023-03-03T09:26:46.251Z,9.42
2023-03-03T09:29:14.570Z,9.14
2023-03-03T09:31:51.565Z,9.51
2023-03-03T09:34:28.184Z,8.97
2023-03-03T09:36:56.666Z,10.09
2023-03-03T09:39:27.068Z,9.27
2023-03-03T09:42:07.280Z,9.46
2023-03-03T09:44:53.705Z,9.82
2023-03-03T09:47:54.285Z,10.63
2023-03-03T09:50:26.909Z,9.85
2023-03-03T09:53:08.421Z,10.05
2023-03-03T09:55:58.093Z,10.22
2023-03-03T09:58:56.819Z,10.49
2023-03-03T10:01:58.871Z,11.09
2023-03-03T10:05:15.995Z,11.92
2023-03-03T10:08:09.037Z,13.87
2023-03-03T10:10:42.389Z,15.01
2023-03-03T10:13:34.514Z,15.51
2023-03-03T10:16:20.331Z,15.81
2023-03-03T10:19:15.702Z,16.35
2023-03-03T10:21:52.206Z,16.71
2023-03-03T10:24:44.475Z,16.59
2023-03-03T10:27:50.432Z,17.75
2023-03-03T10:30:54.787Z,17.77
2023-03-03T10:33:53.565Z,18.72
2023-03-03T10:36:46.392Z,17.46
2023-03-03T10:39:41.371Z,18.70
2023-03-03T10:42:47.815Z,18.30
2023-03-03T10:45:23.399Z,18.70
2023-03-03T10:48:04.755Z,18.83
2023-03-03T10:51:13.421Z,18.44
2023-03-03T10:53:58.623Z,19.81
2023-03-03T10:56:53.765Z,19.28
2023-03-03T11:00:01.329Z,20.49
2023-03-03T11:02:53.785Z,20.18
2023-03-03T11:05:29.322Z,21.20
2023-03-03T11:08:16.453Z,20.36
2023-03-03T11:10:54.476Z,19.92
2023-03-03T11:13:42.724Z,20.92
2023-03-03T11:16:27.388Z,20.13
2023-03-03T11:19:11.638Z,19.64
2023-03-03T11:22:12.414Z,18.82
2023-03-03T11:24:56.124Z,18.52
2023-03-03T11:27:55.389Z,18.05
2023-03-03T11:30:40.150Z,17.25
2023-03-03T11:33:42.465Z,17.20
2023-03-03T11:36:22.444Z,18.21
2023-03-03T11:39:00.513Z,20.03
2023-03-03T11:41:43.982Z,19.18
2023-03-03T11:44:18.410Z,18.85
2023-03-03T11:47:04.815Z,18.76
2023-03-03T11:50:06.151Z,19.41
2023-03-03T11:52:37.290Z,20.03
2023-03-03T11:55:23.655Z,18.05
2023-03-03T11:58:20.716Z,17.10
2023-03-03T12:01:04.065Z,17.15
2023-03-03T12:03:40.124Z,16.23
2023-03-03T12:06:30.869Z,14.89
2023-03-03T12:09:08.761Z,15.33
2023-03-03T12:11:56.487Z,15.52
2023-03-03T12:14:55.001Z,14.59
2023-03-03T12:17:37.741Z,14.76
2023-03-03T12:20:24.701Z,14.33
2023-03-03T12:23:13.521Z,14.33
2023-03-03T12:26:06.385Z,14.33
2023-03-03T12:29:16.316Z,14.81
2023-03-03T12:31:47.894Z,15.31
2023-03-03T12:34:36.544Z,15.43
2023-03-03T12:37:26.098Z,15.65
2023-03-03T12:40:04.529Z,15.28
2023-03-03T12:42:59.000Z,15.31
2023-03-03T12:45:50.689Z,15.04
2023-03-03T12:48:47.538Z,15.21
2023-03-03T12:51:27.661Z,14.50
2023-03-03T12:54:21.678Z,15.26
2023-03-03T12:56:59.260Z,14.74
2023-03-03T12:59:37.009Z,15.00
2023-03-03T13:02:30.421Z,15.96
2023-03-03T13:05:56.513Z,16.00
2023-03-03T13:08:55.213Z,16.62
2023-03-03T13:11:36.308Z,15.58
2023-03-03T13:14:31.485Z,15.51
2023-03-03T13:17:24.612Z,14.98
2023-03-03T13:20:02.940Z,14.82
2023-03-03T13:22:39.115Z,14.76
2023-03-03T13:25:07.316Z,14.47
2023-03-03T13:27:41.223Z,14.19
2023-03-03T13:30:17.549Z,13.90
2023-03-03T13:33:04.526Z,13.87
2023-03-03T13:35:41.633Z,13.76
2023-03-03T13:38:21.367Z,14.41
2023-03-03T13:40:52.245Z,14.27
2023-03-03T13:43:30.834Z,14.41
2023-03-03T13:46:36.568Z,14.62
2023-03-03T13:49:26.600Z,14.66
2023-03-03T13:51:57.554Z,14.22
2023-03-03T13:54:52.862Z,14.00
2023-03-03T13:57:30.016Z,13.88
2023-03-03T14:00:13.973Z,14.53
2023-03-03T14:02:42.747Z,14.59
2023-03-03T14:05:29.577Z,14.03
2023-03-03T14:07:59.668Z,14.78
2023-03-03T14:10:59.675Z,14.09
2023-03-03T14:13:35.538Z,13.68
2023-03-03T14:16:26.616Z,13.96
2023-03-03T14:19:06.745Z,14.15
2023-03-03T14:21:41.578Z,13.92
2023-03-03T14:24:19.629Z,13.86
2023-03-03T14:26:55.561Z,13.95
2023-03-03T14:29:27.318Z,14.04
2023-03-03T14:31:56.849Z,13.78
2023-03-03T14:34:43.569Z,13.52
2023-03-03T14:37:29.407Z,14.03
2023-03-03T14:40:10.165Z,14.69
2023-03-03T14:42:49.799Z,14.23
2023-03-03T14:45:32.595Z,14.66
2023-03-03T14:48:17.519Z,14.35
2023-03-03T14:50:55.140Z,13.89
2023-03-03T14:53:33.152Z,13.95
2023-03-03T14:56:26.281Z,13.35
2023-03-03T14:59:18.702Z,13.11
2023-03-03T15:01:51.600Z,12.75
2023-03-03T15:04:28.156Z,12.77
2023-03-03T15:06:58.453Z,12.57
2023-03-03T15:09:45.780Z,12.59
2023-03-03T15:12:26.685Z,12.48
2023-03-03T15:15:10.854Z,12.06
2023-03-03T15:17:42.361Z,12.37
2023-03-03T15:20:21.656Z,12.18
2023-03-03T15:22:53.658Z,12.33
2023-03-03T15:25:49.131Z,12.58
2023-03-03T15:28:37.107Z,12.43
2023-03-03T15:31:39.197Z,12.08
2023-03-03T15:34:34.947Z,12.38
2023-03-03T15:37:15.429Z,12.72
2023-03-03T15:40:01.047Z,11.87
2023-03-03T15:42:48.646Z,12.18
2023-03-03T15:45:33.944Z,12.20
2023-03-03T15:48:20.696Z,12.17
2023-03-03T15:51:01.251Z,11.29
2023-03-03T15:53:42.933Z,11.92
2023-03-03T15:56:11.995Z,11.89
2023-03-03T15:58:52.196Z,11.58
2023-03-03T16:01:28.017Z,11.36
2023-03-03T16:04:00.300Z,11.32
2023-03-03T16:06:38.432Z,11.12
2023-03-03T16:09:32.192Z,11.32
2023-03-03T16:12:07.852Z,11.14
2023-03-03T16:14:36.258Z,11.06
2023-03-03T16:17:28.984Z,11.15
2023-03-03T16:20:10.527Z,11.29
2023-03-03T16:22:50.067Z,10.97
2023-03-03T16:25:32.256Z,10.91
2023-03-03T16:28:14.545Z,10.32
2023-03-03T16:30:54.972Z,10.30
2023-03-03T16:33:31.788Z,10.88
2023-03-03T16:36:09.005Z,10.16
2023-03-03T16:39:04.321Z,10.40
2023-03-03T16:41:41.908Z,9.76
2023-03-03T16:44:25.105Z,9.84
2023-03-03T16:46:54.209Z,9.94
2023-03-03T16:49:39.738Z,9.53
2023-03-03T16:52:12.749Z,9.36
2023-03-03T16:54:59.662Z,8.72
2023-03-03T16:57:48.249Z,8.18
2023-03-03T17:00:24.630Z,8.53
2023-03-03T17:03:10.196Z,8.18
2023-03-03T17:05:47.235Z,8.32
2023-03-03T17:08:33.818Z,7.79
2023-03-03T17:11:06.549Z,8.41
2023-03-03T17:14:16.280Z,8.67
2023-03-03T17:17:22.798Z,8.48
2023-03-03T17:20:04.639Z,8.07
2023-03-03T17:22:53.347Z,8.17
2023-03-03T17:25:23.938Z,8.20
2023-03-03T17:28:10.908Z,7.55
2023-03-03T17:30:59.680Z,7.27
2023-03-03T17:33:30.519Z,7.31
2023-03-03T17:36:04.761Z,6.94
2023-03-03T17:39:02.222Z,6.69
2023-03-03T17:42:09.451Z,6.43
2023-03-03T17:45:06.775Z,6.15
2023-03-03T17:47:56.626Z,5.78
2023-03-03T17:50:36.334Z,5.89
2023-03-03T17:53:15.781Z,5.86
2023-03-03T17:55:56.057Z,6.17
2023-03-03T17:59:12.615Z,6.47
2023-03-03T18:02:18.709Z,6.66
2023-03-03T18:05:05.649Z,7.01
2023-03-03T18:08:01.583Z,7.34
2023-03-03T18:11:06.745Z,7.54
2023-03-03T18:13:55.060Z,7.49
2023-03-03T18:16:49.560Z,7.13
2023-03-03T18:19:49.296Z,7.50
2023-03-03T18:22:22.388Z,7.69
2023-03-03T18:24:50.342Z,7.85
2023-03-03T18:27:24.745Z,7.76
2023-03-03T18:30:11.185Z,8.04
2023-03-03T18:32:48.585Z,7.71
2023-03-03T18:35:25.947Z,7.97
2023-03-03T18:37:55.567Z,7.86
2023-03-03T18:40:33.764Z,7.24
2023-03-03T18:43:40.525Z,7.64
2023-03-03T18:46:31.695Z,7.57
2023-03-03T18:49:08.825Z,7.66
2023-03-03T18:51:39.816Z,7.83
2023-03-03T18:54:26.559Z,7.47
2023-03-03T18:56:57.210Z,7.59
2023-03-03T18:59:31.698Z,7.63
2023-03-03T19:02:18.473Z,7.22
2023-03-03T19:05:12.814Z,7.63
2023-03-03T19:07:40.751Z,8.18
2023-03-03T19:10:21.784Z,7.42
2023-03-03T19:12:53.684Z,7.95
2023-03-03T19:15:30.305Z,7.39
2023-03-03T19:18:15.456Z,8.06
2023-03-03T19:20:50.566Z,8.03
2023-03-03T19:23:25.407Z,7.90
2023-03-03T19:26:24.924Z,7.72
2023-03-03T19:28:59.787Z,7.60
2023-03-03T19:31:47.777Z,7.57
2023-03-03T19:34:42.135Z,7.27
2023-03-03T19:37:28.925Z,7.02
2023-03-03T19:40:28.105Z,7.05
2023-03-03T19:43:23.957Z,7.43
2023-03-03T19:46:23.856Z,7.10
2023-03-03T19:49:07.878Z,7.03
2023-03-03T19:51:45.152Z,6.66
2023-03-03T19:54:39.928Z,6.73
2023-03-03T19:57:17.804Z,6.60
2023-03-03T19:59:57.742Z,6.29
2023-03-03T20:02:41.940Z,6.33
2023-03-03T20:05:41.435Z,5.69
2023-03-03T20:08:11.321Z,6.09
2023-03-03T20:10:42.663Z,5.66
2023-03-03T20:13:19.830Z,5.61
2023-03-03T20:15:52.840Z,5.32
2023-03-03T20:18:25.203Z,5.67
2023-03-03T20:20:56.812Z,4.65
2023-03-03T20:23:42.174Z,5.06
2023-03-03T20:26:42.497Z,5.23
2023-03-03T20:29:27.421Z,5.25
2023-03-03T20:32:11.836Z,5.04
2023-03-03T20:35:02.629Z,4.83
2023-03-03T20:37:44.775Z,5.23
2023-03-03T20:40:40.407Z,4.77
2023-03-03T20:43:27.585Z,4.74
2023-03-03T20:46:33.360Z,4.17
2023-03-03T20:49:30.330Z,3.51
2023-03-03T20:52:33.730Z,4.22
2023-03-03T20:55:10.817Z,3.96
2023-03-03T20:57:56.591Z,2.97
2023-03-03T21:00:27.961Z,2.82
2023-03-03T21:03:31.392Z,2.82
2023-03-03T21:06:02.842Z,3.13
2023-03-03T21:08:55.042Z,3.32
2023-03-03T21:11:32.628Z,2.71
2023-03-03T21:14:18.204Z,2.70
2023-03-03T21:16:47.189Z,2.38
2023-03-03T21:19:26.164Z,2.79
2023-03-03T21:21:54.907Z,2.86
2023-03-03T21:24:23.190Z,2.59
2023-03-03T21:26:59.327Z,2.79
2023-03-03T21:29:31.428Z,2.16
2023-03-03T21:32:01.569Z,2.24
2023-03-03T21:34:42.378Z,1.85
2023-03-03T21:37:15.688Z,2.19
2023-03-03T21:39:44.737Z,1.70
2023-03-03T21:42:19.493Z,1.44
2023-03-03T21:44:50.055Z,2.00
2023-03-03T21:47:23.346Z,1.98
2023-03-03T21:49:52.524Z,2.27
2023-03-03T21:52:22.484Z,2.03
2023-03-03T21:54:52.075Z,1.73
2023-03-03T21:57:20.496Z,1.92
2023-03-03T21:59:48.429Z,1.89
2023-03-03T22:02:16.627Z,2.34
2023-03-03T22:04:45.015Z,2.34
2023-03-03T22:07:13.199Z,1.58
2023-03-03T22:09:41.067Z,2.14
2023-03-03T22:12:09.435Z,1.69
2023-03-03T22:14:37.377Z,2.11
2023-03-03T22:17:05.567Z,1.74
2023-03-03T22:19:34.506Z,2.15
2023-03-03T22:22:02.456Z,2.03
2023-03-03T22:24:30.722Z,2.38
2023-03-03T22:26:59.168Z,2.11
2023-03-03T22:29:27.157Z,2.06
2023-03-03T22:31:55.170Z,2.81
2023-03-03T22:34:23.634Z,2.91
2023-03-03T22:36:51.547Z,3.31
2023-03-03T22:39:19.512Z,3.14
2023-03-03T22:41:47.859Z,2.91
2023-03-03T22:44:15.811Z,3.07
2023-03-03T22:46:43.746Z,3.02
2023-03-03T22:49:12.100Z,3.25
2023-03-03T22:51:40.052Z,2.63
2023-03-03T22:54:08.010Z,3.16
2023-03-03T22:56:36.384Z,3.19
2023-03-03T22:59:04.468Z,3.75
2023-03-03T23:01:32.485Z,3.38
2023-03-03T23:04:00.871Z,3.64
2023-03-03T23:06:28.842Z,3.14
2023-03-03T23:08:56.760Z,2.70
2023-03-03T23:11:25.546Z,2.49
2023-03-03T23:13:53.797Z,2.75
2023-03-03T23:16:21.769Z,2.89
2023-03-03T23:18:50.216Z,2.67
2023-03-03T23:21:18.229Z,2.21
2023-03-03T23:23:46.324Z,1.57
2023-03-03T23:26:14.620Z,1.78
2023-03-03T23:28:42.551Z,2.54
2023-03-03T23:31:10.668Z,3.07
2023-03-03T23:33:38.997Z,2.97
2023-03-03T23:36:07.482Z,3.43
2023-03-03T23:38:35.547Z,3.23
2023-03-03T23:41:03.941Z,3.11
2023-03-03T23:43:32.017Z,3.34
2023-03-03T23:45:59.958Z,3.68
2023-03-03T23:48:28.288Z,3.56
2023-03-03T23:50:56.237Z,3.75
2023-03-03T23:53:24.164Z,3.77
2023-03-03T23:55:52.546Z,3.70
2023-03-03T23:58:20.505Z,3.37
